Flight Track Log - Related Links

Times and Time Zones

All times are in EDT time to prevent confusion due to time zone crossing. See the N534QS flight status page for this flight to view local times or setup timezone preferences in your user account.

Time Position Orientation Groundspeed Altitude Reporting Facility
EDT Latitude Longitude Course Direction KTS MPH feet Rate Location/Type
Sun 05:26:22 PM 26.6858 -79.9933 53° Northeast 242 278 5,100  Level Miami Center
Sun 05:27:22 PM 26.7392 -79.9458 38° Northeast 287 330 9,800 3,250 Climbing Miami Center
Sun 05:28:22 PM 26.8094 -79.8778 41° Northeast 305 351 11,600 2,500 Climbing Miami Center
Sun 05:29:22 PM 26.8697 -79.7886 53° Northeast 367 422 14,800 2,950 Climbing Miami Center
Sun 05:30:22 PM 26.9364 -79.6900 53° Northeast 394 453 17,500 2,900 Climbing Miami Center
Sun 05:31:00 PM 27.0741 -79.4471 53° Northeast  Level FlightAware Approximate
Sun 05:31:22 PM 27.0139 -79.5706 54° Northeast 424 488 20,600  Level Miami Center
Sun 05:32:22 PM 27.0869 -79.4603 53° Northeast 431 496 22,400 1,200 Climbing Miami Center
Sun 05:33:22 PM 27.1600 -79.3475 54° Northeast 445 512 23,000 300 Climbing Miami Center
Sun 05:34:22 PM 27.2286 -79.2439 53° Northeast 446 513 23,000  Level Miami Center
Sun 05:35:22 PM 27.3056 -79.1194 55° Northeast 446 513 23,000 700 Level Miami Center
Sun 05:36:22 PM 27.3908 -79.0158 47° Northeast 446 513 24,400 1,700 Climbing Miami Center
Sun 05:37:22 PM 27.5025 -78.9453 29° Northeast 452 520 26,400 2,350 Climbing Miami Center
Sun 05:38:22 PM 27.6178 -78.9192 11° North 452 520 29,100 3,000 Climbing Miami Center
Sun 05:39:22 PM 27.7392 -78.9003 North 451 519 32,400 1,950 Climbing Miami Center
Sun 05:40:22 PM 27.8633 -78.8181 30° Northeast 445 512 33,000 300 Climbing Miami Center
Sun 05:41:22 PM 27.9542 -78.7394 37° Northeast 450 518 33,000 650 Level Miami Center
Sun 05:42:22 PM 28.0597 -78.6519 36° Northeast 464 534 34,300 2,000 Climbing Miami Center
Sun 05:43:22 PM 28.1814 -78.5972 22° Northeast 464 534 37,000 2,500 Climbing Miami Center
Sun 05:44:22 PM 28.2969 -78.5472 21° North 451 519 39,300 1,900 Climbing Miami Center
Sun 05:45:22 PM 28.4250 -78.4925 21° North 445 512 40,800 1,550 Climbing Miami Center
Sun 05:46:22 PM 28.5422 -78.4422 21° North 445 512 42,400 1,100 Climbing Miami Center
Sun 05:47:22 PM 28.6619 -78.3917 20° North 450 518 43,000 550 Climbing Miami Center
Sun 05:48:22 PM 28.7833 -78.3389 21° North 458 527 43,500 750 Climbing Miami Center
Sun 05:49:22 PM 28.9050 -78.2861 21° North 458 527 44,500 750 Climbing Miami Center
Sun 05:50:22 PM 29.0225 -78.2331 22° Northeast 458 527 45,000 250 Climbing Miami Center
Sun 05:51:22 PM 29.1481 -78.1822 19° North 453 521 45,000  Level Miami Center
Sun 05:52:22 PM 29.2656 -78.1217 24° Northeast 458 527 45,000  Level Miami Center
Sun 05:53:22 PM 29.3953 -78.0708 19° North 471 542 45,000  Level Miami Center
Sun 05:54:22 PM 29.5269 -78.0222 18° North 471 542 45,000  Level Miami Center
Sun 05:55:22 PM 29.6444 -77.9639 23° Northeast 464 534 45,000  Level Miami Center
Sun 05:55:55 PM 29.7106 -77.9264 26° Northeast 464 534 45,000  Level Jacksonville Center
Sun 05:56:55 PM 29.8214 -77.8803 20° North 459 528 45,000  Level Jacksonville Center
Sun 05:57:55 PM 29.9406 -77.8286 21° North 464 534 45,000  Level Jacksonville Center
Sun 05:58:55 PM 30.0592 -77.7719 22° Northeast 464 534 45,000  Level Jacksonville Center
Sun 05:59:55 PM 30.1825 -77.7197 20° North 464 534 45,000  Level Jacksonville Center
Sun 06:00:55 PM 30.3031 -77.6556 25° Northeast 464 534 45,000  Level Jacksonville Center
Sun 06:01:55 PM 30.4242 -77.6078 19° North 464 534 45,000  Level Jacksonville Center
Sun 06:02:55 PM 30.5450 -77.5578 20° North 464 534 45,000  Level Jacksonville Center
Sun 06:03:55 PM 30.6658 -77.5028 21° North 464 534 45,000  Level Jacksonville Center
Sun 06:04:55 PM 30.7864 -77.4378 25° Northeast 464 534 45,000  Level Jacksonville Center
Sun 06:05:55 PM 30.9033 -77.3925 18° North 464 534 45,000  Level Jacksonville Center
Sun 06:06:55 PM 31.0242 -77.3369 22° Northeast 459 528 45,000  Level Jacksonville Center
Sun 06:07:55 PM 31.1428 -77.2814 22° Northeast 459 528 45,000  Level Jacksonville Center
Sun 06:09:40 PM 31.3631 -77.1814 21° North 461 531 45,000  Level New York Center
Sun 06:10:42 PM 31.4850 -77.1225 22° Northeast 461 531 45,000  Level New York Center
Sun 06:11:40 PM 31.6089 -77.0661 21° North 467 537 45,000  Level New York Center
Sun 06:12:40 PM 31.7308 -77.0067 23° Northeast 461 531 45,000  Level New York Center
Sun 06:13:42 PM 31.8433 -76.9294 30° Northeast 461 531 45,000  Level New York Center
Sun 06:14:39 PM 31.9503 -76.8347 37° Northeast 473 544 45,000  Level New York Center
Sun 06:15:40 PM 32.0544 -76.7517 34° Northeast 478 550 45,000  Level New York Center
Sun 06:16:41 PM 32.1681 -76.6494 37° Northeast 481 554 45,000  Level New York Center
Sun 06:17:41 PM 32.2747 -76.5564 36° Northeast 481 554 45,000  Level New York Center
Sun 06:18:41 PM 32.3814 -76.4631 36° Northeast 476 548 45,000  Level New York Center
Sun 06:19:41 PM 32.4861 -76.3694 37° Northeast 476 548 45,000  Level New York Center
Sun 06:20:40 PM 32.5947 -76.2756 36° Northeast 477 549 45,000  Level New York Center
Sun 06:21:40 PM 32.7033 -76.1794 37° Northeast 477 549 45,000  Level New York Center
Sun 06:22:41 PM 32.8119 -76.0853 36° Northeast 477 549 45,000  Level New York Center
Sun 06:23:40 PM 32.9161 -75.9956 36° Northeast 477 549 45,000  Level New York Center
Sun 06:24:41 PM 33.0225 -75.9008 37° Northeast 477 549 45,000  Level New York Center
Sun 06:25:42 PM 33.1308 -75.8033 37° Northeast 477 549 45,000  Level New York Center
Sun 06:26:40 PM 33.2350 -75.7106 37° Northeast 477 549 45,000  Level New York Center
Sun 06:27:41 PM 33.3408 -75.6175 36° Northeast 477 549 45,000  Level New York Center
Sun 06:28:39 PM 33.4469 -75.5219 37° Northeast 477 549 45,000  Level New York Center
Sun 06:29:39 PM 33.5381 -75.4350 38° Northeast 477 549 45,000 -49 Level New York Center
Sun 06:30:41 PM 33.6483 -75.3392 36° Northeast 477 549 44,900  Descending New York Center
Sun 06:31:39 PM 33.7522 -75.2425 38° Northeast 477 549 45,000 50 Climbing New York Center
Sun 06:32:40 PM 33.8622 -75.1461 36° Northeast 483 556 45,000  Level New York Center
Sun 06:33:39 PM 33.9700 -75.0469 37° Northeast 483 556 45,000  Level New York Center
Sun 06:34:41 PM 34.0800 -74.9500 36° Northeast 477 549 45,000  Level New York Center
Sun 06:35:40 PM 34.1919 -74.8503 36° Northeast 483 556 45,000  Level New York Center
Sun 06:36:40 PM 34.2914 -74.7500 40° Northeast 476 548 45,000  Level New York Center
Sun 06:37:41 PM 34.4033 -74.6422 38° Northeast 487 560 45,000  Level New York Center
Sun 06:38:41 PM 34.5108 -74.5467 36° Northeast 488 562 45,000  Level New York Center
Sun 06:39:40 PM 34.6161 -74.4508 37° Northeast 477 549 45,000  Level New York Center
Sun 06:40:40 PM 34.7214 -74.3522 38° Northeast 477 549 45,000  Level New York Center
Sun 06:41:39 PM 34.8267 -74.2531 38° Northeast 477 549 45,000  Level New York Center
Sun 06:42:40 PM 34.9317 -74.1564 37° Northeast 477 549 45,000  Level New York Center
Sun 06:43:39 PM 35.0369 -74.0569 38° Northeast 475 547 45,000  Level New York Center
Sun 06:44:40 PM 35.1375 -73.9647 37° Northeast 469 540 45,000  Level New York Center
Sun 06:45:41 PM 35.2381 -73.8697 38° Northeast 461 531 45,000  Level New York Center
Sun 06:46:41 PM 35.3386 -73.7744 38° Northeast 456 525 45,000  Level New York Center
Sun 06:47:39 PM 35.4414 -73.6764 38° Northeast 456 525 45,000  Level New York Center
Sun 06:48:39 PM 35.5397 -73.5806 38° Northeast 449 517 45,000  Level New York Center
Sun 06:49:40 PM 35.6400 -73.4872 37° Northeast 454 522 45,000  Level New York Center
Sun 06:50:40 PM 35.7444 -73.3886 37° Northeast 454 522 45,000  Level New York Center
Sun 06:51:41 PM 35.8383 -73.2969 38° Northeast 449 517 45,000  Level New York Center
Sun 06:52:41 PM 35.9447 -73.1953 38° Northeast 456 525 45,000  Level New York Center
Sun 06:53:41 PM 36.0489 -73.0983 37° Northeast 456 525 45,000  Level New York Center
Sun 06:54:42 PM 36.1447 -73.0036 39° Northeast 456 525 45,000  Level New York Center
Sun 06:55:39 PM 36.2489 -72.9036 38° Northeast 456 525 45,000  Level New York Center
Sun 06:56:40 PM 36.3444 -72.8031 40° Northeast 451 519 45,000  Level New York Center
Sun 06:57:41 PM 36.4464 -72.7053 38° Northeast 458 527 45,000  Level New York Center
Sun 06:58:40 PM 36.5481 -72.6019 39° Northeast 458 527 45,000  Level New York Center
Sun 06:59:40 PM 36.6478 -72.5008 39° Northeast 462 532 45,000  Level New York Center
Sun 07:00:40 PM 36.7742 -72.4286 25° Northeast 470 541 45,000  Level New York Center
Sun 07:01:42 PM 36.9017 -72.4003 10° North 456 525 45,000  Level New York Center
Sun 07:02:39 PM 37.0331 -72.4083 357° North 442 509 45,000  Level New York Center
Sun 07:03:40 PM 37.1558 -72.4214 355° North 440 506 45,000  Level New York Center
Sun 07:04:40 PM 37.2811 -72.4294 357° North 446 513 45,000  Level New York Center
Sun 07:05:42 PM 37.4103 -72.4403 356° North 451 519 45,000  Level New York Center
Sun 07:06:40 PM 37.5414 -72.4486 357° North 460 529 45,000  Level New York Center
Sun 07:07:39 PM 37.6539 -72.4589 356° North 449 517 45,000  Level New York Center
Sun 07:08:39 PM 37.7833 -72.4647 358° North 442 509 45,000  Level New York Center
Sun 07:09:40 PM 37.9183 -72.4861 353° North 451 519 45,000  Level New York Center
Sun 07:10:39 PM 38.0458 -72.4839 North 451 519 45,000  Level New York Center
Sun 07:11:39 PM 38.1728 -72.4975 355° North 457 526 45,000 -443 Level New York Center
Sun 07:12:41 PM 38.2997 -72.5058 357° North 457 526 44,100 -1,122 Descending New York Center
Sun 07:13:42 PM 38.4228 -72.5142 357° North 457 526 42,700 -1,475 Descending New York Center
Sun 07:14:39 PM 38.5417 -72.5197 358° North 438 504 41,200 -1,513 Descending New York Center
Sun 07:15:41 PM 38.6644 -72.5281 357° North 438 504 39,700 -1,463 Descending New York Center
Sun 07:16:42 PM 38.7894 -72.5392 356° North 443 510 38,200 -1,815 Descending New York Center
Sun 07:17:40 PM 38.9122 -72.5475 357° North 443 510 36,100 -2,390 Descending New York Center
Sun 07:18:40 PM 39.0372 -72.5533 358° North 443 510 33,500 -2,628 Descending New York Center
Sun 07:19:41 PM 39.1622 -72.5672 355° North 443 510 30,800 -2,773 Descending New York Center
Sun 07:20:39 PM 39.2914 -72.5681 360° North 454 522 28,000 -2,723 Descending New York Center
Sun 07:21:40 PM 39.4164 -72.5792 356° North 454 522 25,400 -2,417 Descending New York Center
Sun 07:26:29 PM 39.9642 -72.6161 357° North 464 534 13,900 -2,061 Descending Boston Center
Sun 07:27:41 PM 40.0664 -72.6244 356° North 425 489 13,000 -409 Descending Boston Center
Sun 07:28:41 PM 40.1914 -72.6331 357° North 386 444 13,000 -450 Level Boston Center
Sun 07:29:41 PM 40.2892 -72.6414 356° North 366 421 12,100 -950 Descending Boston Center
Sun 07:30:41 PM 40.3683 -72.6472 357° North 333 383 11,100 -1,000 Descending Boston Center
Sun 07:31:41 PM 40.4497 -72.6528 357° North 301 346 10,100 -1,000 Descending Boston Center
Sun 07:32:41 PM 40.5289 -72.6586 357° North 286 329 9,100 -621 Descending Boston Center
Sun 07:34:35 PM 40.6833 -72.6667 358° North 289 333 8,300 -621 Descending New York TRACON
Sun 07:35:35 PM 40.7667 -72.6667 360° North 284 327 7,300 -650 Descending New York TRACON
Sun 07:36:35 PM 40.8333 -72.6833 349° North 284 327 7,000 -150 Descending New York TRACON
Sun 07:37:35 PM 40.9167 -72.6833 360° North 283 326 7,000  Level New York TRACON
Sun 07:38:35 PM 40.9833 -72.7167 339° North 279 321 7,000  Level New York TRACON
Sun 07:39:35 PM 41.0500 -72.7833 323° Northwest 272 313 7,000 50 Level New York TRACON
Sun 07:40:35 PM 41.0833 -72.8667 298° West 269 310 7,100 -158 Climbing New York TRACON
Sun 07:41:29 PM 41.1000 -72.9500 285° West 270 311 6,700 -842 Descending New York TRACON
Sun 07:42:29 PM 41.1333 -73.0500 294° West 264 304 5,500 -1,200 Descending New York TRACON
Sun 07:43:29 PM 41.1667 -73.1333 298° West 260 299 4,300 -750 Descending New York TRACON
Sun 07:44:29 PM 41.1667 -73.2333 270° West 256 295 4,000 -150 Descending New York TRACON
Sun 07:45:29 PM 41.1833 -73.3167 285° West 255 293 4,000  Level New York TRACON
Sun 07:46:29 PM 41.2000 -73.4167 283° West 261 300 4,000  Level New York TRACON
Sun 07:47:29 PM 41.2167 -73.5000 285° West 238 274 4,000  Level New York TRACON
Sun 07:48:29 PM 41.2500 -73.5667 304° West 201 231 4,000 50 Level New York TRACON
Sun 07:49:29 PM 41.2667 -73.6167 294° West 187 215 4,100 100 Climbing New York TRACON

Login

Don't have an account? Register now (free) for customized features, flight alerts, and more!